Time;durP1;ratioP1;P1;durP2;ratioP2;P2;SDS_P1;SDS_P2;PMS_P1;PMS_P2;Temp;Humidity;BMP_temperature;BMP_pressure;BME280_temperature;BME280_humidity;BME280_pressure;Samples;Min_cycle;Max_cycle;Signal;HPM_P1;HPM_P2
2022/09/01 00:01:48;;;;;;;2.60;2.00;;;;;;;17.82;nan;100752.34;5025997;28;19924;-68
2022/09/01 00:04:16;;;;;;;5.32;2.45;;;;;;;17.82;nan;100757.69;5026886;28;20037;-68
2022/09/01 00:06:42;;;;;;;3.15;2.40;;;;;;;17.79;nan;100749.19;5026136;28;20388;-68
2022/09/01 00:09:12;;;;;;;4.40;2.42;;;;;;;17.76;nan;100753.09;5020728;28;20037;-68
2022/09/01 00:11:39;;;;;;;4.47;2.55;;;;;;;17.75;nan;100745.25;5024840;28;20036;-68
2022/09/01 00:14:07;;;;;;;3.70;2.63;;;;;;;17.75;nan;100739.91;5027474;28;20036;-69
2022/09/01 00:16:33;;;;;;;2.90;2.25;;;;;;;17.71;nan;100731.47;5017808;28;20073;-68
2022/09/01 00:18:58;;;;;;;3.78;2.60;;;;;;;17.73;nan;100742.78;5019635;28;20107;-68
2022/09/01 00:21:27;;;;;;;3.25;2.50;;;;;;;17.71;nan;100739.47;5019411;28;20041;-68
2022/09/01 00:23:53;;;;;;;3.75;2.83;;;;;;;17.67;nan;100746.22;5027117;28;20037;-68
2022/09/01 00:26:18;;;;;;;4.05;2.40;;;;;;;17.65;nan;100742.91;5036914;28;20393;-68
2022/09/01 00:28:43;;;;;;;;;;;;;;;17.61;nan;100728.25;5028769;28;20041;-68
2022/09/01 00:31:13;;;;;;;5.45;3.20;;;;;;;17.66;nan;100736.53;5014727;28;19921;-68
2022/09/01 00:33:40;;;;;;;4.95;2.80;;;;;;;17.62;nan;100736.09;5020929;28;20087;-67
2022/09/01 00:36:06;;;;;;;3.92;2.60;;;;;;;17.58;nan;100731.34;5026884;28;20064;-71
2022/09/01 00:38:32;;;;;;;3.47;2.60;;;;;;;17.66;nan;100731.19;5010948;28;20428;-68
2022/09/01 00:40:59;;;;;;;3.38;2.60;;;;;;;17.62;nan;100728.09;5027401;28;20118;-68
2022/09/01 00:43:43;;;;;;;6.03;3.00;;;;;;;17.59;nan;100724.94;5017975;28;20038;-68
2022/09/01 00:46:21;;;;;;;5.03;3.08;;;;;;;17.54;nan;100727.38;5010788;28;20107;-69
2022/09/01 00:48:52;;;;;;;3.83;2.78;;;;;;;17.51;nan;100725.91;5012260;28;20034;-68
2022/09/01 00:51:18;;;;;;;2.85;2.50;;;;;;;17.50;nan;100726.13;5028405;28;20057;-68
2022/09/01 00:53:44;;;;;;;5.88;3.05;;;;;;;17.45;nan;100721.38;5022739;28;20052;-68
2022/09/01 00:56:12;;;;;;;4.18;3.00;;;;;;;17.46;nan;100723.00;5028140;28;20308;-68
2022/09/01 00:58:37;;;;;;;4.85;3.05;;;;;;;17.44;nan;100722.38;5024225;28;20042;-67
2022/09/01 01:01:05;;;;;;;4.30;2.85;;;;;;;17.38;nan;100723.97;5009601;28;20403;-68
2022/09/01 01:03:30;;;;;;;3.97;2.83;;;;;;;17.37;nan;100727.66;5018944;28;20048;-68
2022/09/01 01:06:00;;;;;;;3.35;2.80;;;;;;;17.34;nan;100732.56;5023340;28;20030;-68
2022/09/01 01:08:34;;;;;;;4.40;3.10;;;;;;;17.32;nan;100732.75;5021215;28;20175;-68
2022/09/01 01:11:07;;;;;;;3.50;2.53;;;;;;;17.26;nan;100738.88;5027201;28;20119;-68
2022/09/01 01:13:47;;;;;;;3.80;2.53;;;;;;;17.19;nan;100736.13;5015215;28;20071;-68
2022/09/01 01:16:14;;;;;;;4.78;2.67;;;;;;;17.13;nan;100733.38;5020964;28;20225;-68
2022/09/01 01:18:40;;;;;;;5.05;2.97;;;;;;;17.08;nan;100741.97;5015620;28;20033;-68
2022/09/01 01:24:17;;;;;;;2.72;2.22;;;;;;;16.93;nan;100749.19;5008436;28;20172;-68
2022/09/01 01:26:42;;;;;;;2.95;2.05;;;;;;;16.84;nan;100739.63;5026513;28;20068;-68
2022/09/01 01:29:08;;;;;;;3.63;2.75;;;;;;;16.72;nan;100736.59;5020944;28;20231;-68
2022/09/01 01:31:34;;;;;;;3.80;2.80;;;;;;;16.66;nan;100735.50;5017430;28;20072;-68
2022/09/01 01:34:00;;;;;;;2.90;2.55;;;;;;;16.62;nan;100736.88;5027295;28;20118;-68
2022/09/01 01:36:35;;;;;;;3.15;2.45;;;;;;;16.58;nan;100738.25;5012099;28;20050;-68
2022/09/01 01:39:02;;;;;;;2.88;2.35;;;;;;;16.51;nan;100742.69;5034437;28;20032;-67
2022/09/01 01:41:30;;;;;;;3.90;2.88;;;;;;;16.46;nan;100739.75;5015730;28;20124;-67
2022/09/01 01:43:57;;;;;;;5.18;3.67;;;;;;;16.46;nan;100740.56;5028190;28;20110;-67
2022/09/01 01:46:24;;;;;;;3.42;2.92;;;;;;;16.42;nan;100739.31;5023145;28;20045;-67
2022/09/01 01:48:51;;;;;;;3.53;2.70;;;;;;;16.35;nan;100741.03;5015452;28;20120;-67
2022/09/01 01:51:20;;;;;;;3.65;2.95;;;;;;;16.27;nan;100733.94;5013057;28;20052;-67
2022/09/01 01:53:46;;;;;;;5.53;3.13;;;;;;;16.25;nan;100737.81;5021550;28;20606;-67
2022/09/01 01:56:12;;;;;;;3.67;2.50;;;;;;;16.23;nan;100735.34;5020940;28;20045;-67
2022/09/01 01:58:38;;;;;;;4.03;2.47;;;;;;;16.23;nan;100737.16;5019065;28;20049;-67
2022/09/01 02:01:05;;;;;;;2.20;1.80;;;;;;;16.32;nan;100744.06;5020022;28;20752;-67
2022/09/01 02:03:37;;;;;;;2.40;1.90;;;;;;;16.22;nan;100748.84;5030318;28;20033;-67
2022/09/01 02:06:08;;;;;;;3.20;2.60;;;;;;;16.18;nan;100753.72;5018296;28;20038;-69
2022/09/01 02:08:36;;;;;;;3.65;2.60;;;;;;;16.11;nan;100750.97;5041863;28;20057;-67
2022/09/01 02:11:04;;;;;;;3.85;3.00;;;;;;;16.03;nan;100750.22;5017692;28;20120;-67
2022/09/01 02:13:30;;;;;;;3.20;2.72;;;;;;;15.97;nan;100753.59;5030542;28;20030;-67
2022/09/01 02:16:06;;;;;;;3.35;2.60;;;;;;;15.89;nan;100751.84;5017368;28;20060;-67
2022/09/01 02:18:39;;;;;;;4.45;3.30;;;;;;;15.87;nan;100745.84;5027653;28;20037;-67
2022/09/01 02:21:08;;;;;;;5.13;3.55;;;;;;;15.86;nan;100744.22;5013482;28;20112;-67
2022/09/01 02:23:35;;;;;;;5.25;3.85;;;;;;;15.88;nan;100739.53;5013955;28;20030;-67
2022/09/01 02:26:01;;;;;;;3.15;2.67;;;;;;;15.91;nan;100745.31;5026646;28;20501;-68
2022/09/01 02:28:29;;;;;;;3.13;2.30;;;;;;;15.92;nan;100739.00;5022760;28;20053;-68
2022/09/01 02:30:56;;;;;;;3.17;2.70;;;;;;;15.93;nan;100745.97;5021754;28;20038;-68
2022/09/01 02:33:24;;;;;;;3.65;2.78;;;;;;;15.98;nan;100741.94;5026763;28;20033;-68
2022/09/01 02:35:55;;;;;;;4.78;3.15;;;;;;;15.98;nan;100744.59;5026478;28;20478;-68
2022/09/01 02:38:24;;;;;;;4.60;3.10;;;;;;;15.97;nan;100743.78;5028693;28;20457;-68
2022/09/01 02:40:52;;;;;;;3.25;2.45;;;;;;;15.99;nan;100746.25;5019765;28;20498;-68
2022/09/01 02:43:19;;;;;;;2.90;2.38;;;;;;;16.01;nan;100746.91;5015955;28;20095;-68
2022/09/01 02:45:53;;;;;;;3.45;2.75;;;;;;;15.98;nan;100741.94;5031039;28;20061;-68
2022/09/01 02:48:23;;;;;;;2.75;2.38;;;;;;;16.05;nan;100741.03;5029072;28;20399;-68
2022/09/01 02:50:49;;;;;;;2.53;2.15;;;;;;;15.97;nan;100738.44;5011494;28;20100;-68
2022/09/01 02:53:15;;;;;;;2.60;2.25;;;;;;;15.88;nan;100740.34;5030253;28;20131;-68
2022/09/01 02:55:41;;;;;;;3.50;2.35;;;;;;;15.80;nan;100736.94;5012438;28;20041;-68
2022/09/01 02:58:15;;;;;;;3.63;2.50;;;;;;;15.71;nan;100746.84;5010507;28;20061;-69
2022/09/01 03:00:42;;;;;;;3.33;2.80;;;;;;;15.62;nan;100743.38;5024699;28;20135;-68
2022/09/01 03:03:11;;;;;;;3.67;3.10;;;;;;;15.61;nan;100741.75;5014053;28;20037;-68
2022/09/01 03:05:38;;;;;;;4.97;3.50;;;;;;;15.61;nan;100746.22;5021035;28;20438;-68
2022/09/01 03:08:09;;;;;;;4.10;3.50;;;;;;;15.60;nan;100748.06;5012975;28;20430;-68
2022/09/01 03:10:35;;;;;;;;;;;;;;;15.65;nan;100752.88;5025827;28;20045;-69
2022/09/01 03:13:16;;;;;;;4.38;3.03;;;;;;;15.67;nan;100748.19;5033619;28;19917;-68
2022/09/01 03:15:43;;;;;;;5.97;3.53;;;;;;;15.63;nan;100749.53;5028928;28;20037;-68
2022/09/01 03:18:10;;;;;;;4.53;3.10;;;;;;;15.60;nan;100748.06;5028084;28;20169;-68
2022/09/01 03:20:38;;;;;;;3.63;3.28;;;;;;;15.57;nan;100747.63;5017318;28;20089;-68
2022/09/01 03:23:07;;;;;;;4.85;4.15;;;;;;;15.60;nan;100740.06;5038701;28;20034;-68
2022/09/01 03:25:33;;;;;;;4.97;3.83;;;;;;;15.70;nan;100742.50;5024914;28;20033;-68
2022/09/01 03:28:00;;;;;;;3.83;3.20;;;;;;;15.75;nan;100740.13;5019083;28;20034;-68
2022/09/01 03:30:28;;;;;;;4.50;3.70;;;;;;;15.81;nan;100749.28;5028114;28;20380;-68
2022/09/01 03:32:54;;;;;;;4.28;3.30;;;;;;;15.79;nan;100748.63;5017429;28;20038;-68
2022/09/01 03:35:21;;;;;;;3.53;3.10;;;;;;;15.78;nan;100747.78;5022618;28;20034;-68
2022/09/01 03:37:46;;;;;;;3.47;2.75;;;;;;;15.76;nan;100764.97;5019811;28;20034;-68
2022/09/01 03:40:12;;;;;;;3.05;2.50;;;;;;;15.71;nan;100754.84;5011433;28;20121;-68
2022/09/01 03:42:38;;;;;;;3.25;2.67;;;;;;;15.65;nan;100755.53;5016859;28;20029;-68
2022/09/01 03:45:08;;;;;;;4.28;2.90;;;;;;;15.58;nan;100754.59;5028126;28;20030;-68
2022/09/01 03:47:38;;;;;;;3.35;2.63;;;;;;;15.49;nan;100760.00;5028123;28;20661;-68
2022/09/01 03:50:19;;;;;;;3.30;2.50;;;;;;;15.44;nan;100754.34;5027533;28;20405;-68
2022/09/01 03:52:54;;;;;;;2.88;2.58;;;;;;;15.38;nan;100752.41;5019443;28;20041;-68
2022/09/01 03:55:25;;;;;;;2.97;2.50;;;;;;;15.34;nan;100751.09;5029829;28;20399;-68
2022/09/01 03:57:53;;;;;;;3.38;2.40;;;;;;;15.34;nan;100747.59;5016951;28;20372;-68
2022/09/01 04:00:21;;;;;;;3.58;2.60;;;;;;;15.33;nan;100752.13;5020729;28;20049;-68
2022/09/01 04:02:49;;;;;;;3.08;2.42;;;;;;;15.31;nan;100754.13;5027339;28;20159;-68
2022/09/01 04:05:14;;;;;;;3.42;2.78;;;;;;;15.32;nan;100755.78;5010552;28;20043;-68
2022/09/01 04:07:40;;;;;;;3.53;2.78;;;;;;;15.32;nan;100760.28;5020967;28;20029;-68
2022/09/01 04:10:10;;;;;;;3.30;2.80;;;;;;;15.31;nan;100751.47;5026915;28;20041;-69
2022/09/01 04:12:36;;;;;;;3.28;2.67;;;;;;;15.29;nan;100756.13;5042312;28;20301;-68
2022/09/01 04:15:01;;;;;;;4.43;3.00;;;;;;;15.26;nan;100754.66;5027849;28;20623;-68
2022/09/01 04:18:09;;;;;;;2.92;2.45;;;;;;;15.23;nan;100755.00;5021018;28;20069;-68
2022/09/01 04:20:18;;;;;;;3.08;2.67;;;;;;;15.16;nan;100745.22;5011071;28;20187;-68
2022/09/01 04:22:46;;;;;;;3.50;2.90;;;;;;;15.09;nan;100755.78;5028868;28;20347;-68
2022/09/01 04:25:12;;;;;;;3.42;2.88;;;;;;;15.01;nan;100756.63;5030388;28;20037;-68
2022/09/01 04:27:39;;;;;;;3.65;2.85;;;;;;;14.96;nan;100761.66;5037644;28;20391;-68
2022/09/01 04:30:09;;;;;;;4.25;3.00;;;;;;;14.89;nan;100751.88;5020018;28;20147;-68
2022/09/01 04:32:39;;;;;;;3.75;2.97;;;;;;;14.82;nan;100752.56;5026054;28;20041;-68
2022/09/01 04:35:06;;;;;;;3.10;2.60;;;;;;;14.77;nan;100754.09;5024929;28;20125;-68
2022/09/01 04:37:34;;;;;;;3.13;2.53;;;;;;;14.73;nan;100758.09;5022814;28;20413;-68
2022/09/01 04:40:00;;;;;;;4.45;3.17;;;;;;;14.68;nan;100760.44;5019358;28;20034;-68
2022/09/01 04:42:27;;;;;;;3.22;2.80;;;;;;;14.62;nan;100760.16;5011819;28;20534;-68
2022/09/01 04:44:55;;;;;;;4.20;2.78;;;;;;;14.60;nan;100762.16;5025614;28;20564;-68
2022/09/01 04:47:28;;;;;;;3.67;3.03;;;;;;;14.60;nan;100767.47;5024071;28;20120;-68
2022/09/01 04:49:59;;;;;;;3.97;2.90;;;;;;;14.60;nan;100762.16;5026404;28;20402;-68
2022/09/01 04:52:26;;;;;;;4.00;3.47;;;;;;;14.58;nan;100761.47;5027606;28;20033;-68
2022/09/01 04:54:53;;;;;;;3.88;3.03;;;;;;;14.60;nan;100766.66;5018887;28;20109;-68
2022/09/01 04:57:19;;;;;;;3.33;2.80;;;;;;;14.61;nan;100763.81;5021696;28;20030;-68
2022/09/01 04:59:44;;;;;;;3.78;2.95;;;;;;;14.61;nan;100766.47;5010243;28;20033;-68
2022/09/01 05:02:10;;;;;;;3.60;2.92;;;;;;;14.64;nan;100763.47;5025211;28;21827;-68
2022/09/01 05:04:35;;;;;;;4.15;2.88;;;;;;;14.68;nan;100763.13;5008843;28;20061;-68
2022/09/01 05:07:02;;;;;;;4.45;3.58;;;;;;;14.74;nan;100759.78;5016543;28;20034;-68
2022/09/01 05:09:30;;;;;;;6.07;4.45;;;;;;;14.82;nan;100765.03;5023542;28;20572;-68
2022/09/01 05:11:57;;;;;;;5.43;4.50;;;;;;;14.90;nan;100761.50;5025149;28;20060;-68
2022/09/01 05:14:24;;;;;;;5.35;4.53;;;;;;;14.96;nan;100758.97;5028044;28;20391;-68
2022/09/01 05:16:55;;;;;;;5.55;4.82;;;;;;;15.10;nan;100756.59;5017322;28;20465;-68
2022/09/01 05:19:23;;;;;;;5.97;4.65;;;;;;;15.20;nan;100760.66;5011453;28;20061;-68
2022/09/01 05:21:49;;;;;;;6.80;5.10;;;;;;;15.33;nan;100765.44;5008896;28;20514;-68
2022/09/01 05:24:18;;;;;;;5.05;4.50;;;;;;;15.47;nan;100764.66;5038925;28;20132;-69
2022/09/01 05:26:46;;;;;;;7.03;4.78;;;;;;;15.62;nan;100759.38;5031599;28;20041;-68
2022/09/01 05:29:14;;;;;;;5.43;4.55;;;;;;;15.75;nan;100760.63;5011734;28;20387;-68
2022/09/01 05:31:41;;;;;;;8.38;5.15;;;;;;;15.87;nan;100764.53;5027749;28;20128;-68
2022/09/01 05:34:08;;;;;;;7.13;5.22;;;;;;;16.00;nan;100761.25;5013233;28;20029;-69
2022/09/01 05:36:35;;;;;;;6.60;4.90;;;;;;;16.13;nan;100767.59;5022223;28;20517;-68
2022/09/01 05:39:01;;;;;;;5.00;4.45;;;;;;;16.27;nan;100773.16;5024149;28;20030;-68
2022/09/01 05:41:27;;;;;;;5.30;4.40;;;;;;;16.45;nan;100770.94;5013139;28;20218;-69
2022/09/01 05:43:53;;;;;;;5.43;4.60;;;;;;;16.69;nan;100769.00;5025085;28;20064;-68
2022/09/01 05:46:25;;;;;;;5.38;4.50;;;;;;;16.98;nan;100768.16;5009152;28;20581;-68
2022/09/01 05:48:51;;;;;;;5.80;3.92;;;;;;;17.32;nan;100767.50;5010918;28;20030;-67
2022/09/01 05:51:21;;;;;;;4.68;3.88;;;;;;;17.53;nan;100761.31;5019584;28;20042;-69
2022/09/01 05:53:50;;;;;;;5.20;3.85;;;;;;;17.81;nan;100776.63;5011514;28;20115;-66
2022/09/01 05:56:18;;;;;;;4.40;3.50;;;;;;;18.06;nan;100771.66;5024125;28;20704;-69
2022/09/01 05:58:46;;;;;;;3.80;3.38;;;;;;;18.42;nan;100781.34;5011956;28;20058;-68
2022/09/01 06:01:20;;;;;;;4.70;2.88;;;;;;;18.55;nan;100764.56;5024526;28;20037;-68
2022/09/01 06:03:56;;;;;;;3.67;2.55;;;;;;;18.60;nan;100780.84;5015616;28;20033;-68
2022/09/01 06:06:34;;;;;;;4.10;3.03;;;;;;;18.63;nan;100773.22;5022115;28;20045;-68
2022/09/01 06:09:01;;;;;;;4.05;3.05;;;;;;;18.65;nan;100775.72;5025866;28;20056;-68
2022/09/01 06:11:31;;;;;;;3.55;2.92;;;;;;;18.64;nan;100772.22;5023751;28;20504;-69
2022/09/01 06:13:58;;;;;;;4.05;3.13;;;;;;;18.62;nan;100771.59;5012336;28;20426;-68
2022/09/01 06:16:25;;;;;;;3.85;2.90;;;;;;;18.71;nan;100777.63;5023409;28;20049;-68
2022/09/01 06:18:52;;;;;;;4.05;2.60;;;;;;;18.87;nan;100774.59;5019041;28;20037;-68
2022/09/01 06:21:20;;;;;;;3.67;2.95;;;;;;;18.94;nan;100776.50;5026008;28;20041;-68
2022/09/01 06:23:46;;;;;;;4.15;3.45;;;;;;;18.94;nan;100771.94;5030594;28;20033;-68
2022/09/01 06:26:18;;;;;;;4.75;2.83;;;;;;;19.00;nan;100781.06;5045191;28;20527;-69
2022/09/01 06:28:44;;;;;;;4.05;2.70;;;;;;;19.03;nan;100783.34;5030791;28;20108;-68
2022/09/01 06:31:11;;;;;;;4.85;3.13;;;;;;;19.12;nan;100767.91;5037796;28;20498;-68
2022/09/01 06:33:37;;;;;;;5.70;3.78;;;;;;;19.08;nan;100775.50;5031361;28;20033;-68
2022/09/01 06:36:04;;;;;;;4.88;2.88;;;;;;;19.14;nan;100774.72;5028482;28;20065;-68
2022/09/01 06:38:30;;;;;;;4.72;3.13;;;;;;;19.20;nan;100776.56;5024128;28;20041;-70
2022/09/01 06:41:03;;;;;;;4.25;3.30;;;;;;;19.24;nan;100777.81;5023268;28;21439;-67
2022/09/01 06:43:30;;;;;;;4.32;2.88;;;;;;;19.34;nan;100772.06;5023994;28;20095;-67
2022/09/01 06:46:00;;;;;;;3.47;2.78;;;;;;;19.44;nan;100771.66;5026434;28;20463;-69
2022/09/01 06:48:25;;;;;;;3.30;2.67;;;;;;;19.55;nan;100772.94;5024816;28;20545;-68
2022/09/01 06:50:51;;;;;;;3.10;2.70;;;;;;;19.72;nan;100774.22;5016252;28;20041;-67
2022/09/01 06:53:17;;;;;;;2.90;2.40;;;;;;;19.86;nan;100773.19;5029570;28;20163;-70
2022/09/01 06:55:47;;;;;;;3.20;2.65;;;;;;;19.98;nan;100770.69;5029283;28;20363;-70
2022/09/01 06:58:14;;;;;;;3.70;2.97;;;;;;;20.04;nan;100777.91;5028986;28;20042;-68
2022/09/01 07:00:41;;;;;;;5.47;3.50;;;;;;;20.01;nan;100772.94;5029973;28;20037;-70
2022/09/01 07:03:08;;;;;;;4.65;3.20;;;;;;;20.05;nan;100771.50;5029498;28;20069;-70
2022/09/01 07:05:38;;;;;;;3.75;2.70;;;;;;;20.22;nan;100781.81;5030705;28;20402;-69
2022/09/01 07:08:08;;;;;;;2.97;2.40;;;;;;;20.51;nan;100784.00;5031025;28;20045;-69
2022/09/01 07:10:43;;;;;;;6.18;2.55;;;;;;;21.00;nan;100788.00;5032292;28;20398;-66
2022/09/01 07:13:17;;;;;;;2.80;2.22;;;;;;;21.65;nan;100788.91;5034650;28;20049;-67
2022/09/01 07:15:43;;;;;;;3.08;2.33;;;;;;;22.34;nan;100787.88;5025964;28;20609;-68
2022/09/01 07:18:11;;;;;;;4.63;2.28;;;;;;;22.98;nan;100796.50;5033048;28;20044;-67
2022/09/01 07:20:40;;;;;;;3.53;2.55;;;;;;;23.57;nan;100793.19;5032813;28;20112;-67
2022/09/01 07:23:06;;;;;;;4.03;2.25;;;;;;;23.70;nan;100804.59;5030774;28;20108;-69
2022/09/01 07:25:33;;;;;;;3.33;2.30;;;;;;;23.85;nan;100801.47;5028122;28;20107;-69
2022/09/01 07:27:58;;;;;;;4.20;2.70;;;;;;;24.02;nan;100795.38;5029233;28;20469;-69
2022/09/01 07:30:24;;;;;;;3.90;2.80;;;;;;;24.03;nan;100805.16;5028052;28;20137;-69
2022/09/01 07:32:49;;;;;;;3.63;2.77;;;;;;;23.92;nan;100799.50;5029514;28;20029;-68
2022/09/01 07:35:18;;;;;;;3.22;2.70;;;;;;;23.86;nan;100805.84;5027790;28;20288;-68
2022/09/01 07:37:44;;;;;;;3.05;2.58;;;;;;;23.39;nan;100803.00;5021547;28;20041;-68
2022/09/01 07:40:11;;;;;;;3.45;2.67;;;;;;;23.25;nan;100806.94;5023557;28;20076;-68
2022/09/01 07:42:39;;;;;;;4.55;2.80;;;;;;;23.02;nan;100799.56;5026895;28;20552;-68
2022/09/01 07:45:07;;;;;;;2.70;2.30;;;;;;;23.01;nan;100798.75;5029041;28;20029;-68
2022/09/01 07:47:35;;;;;;;3.17;2.45;;;;;;;23.01;nan;100797.94;5029112;28;20040;-69
2022/09/01 07:50:07;;;;;;;3.92;2.15;;;;;;;23.50;nan;100810.31;5028595;28;20121;-69
2022/09/01 07:52:35;;;;;;;3.15;2.63;;;;;;;23.85;nan;100806.06;5026813;28;20033;-69
2022/09/01 07:55:01;;;;;;;2.85;2.25;;;;;;;23.94;nan;100797.38;5024259;28;20097;-68
2022/09/01 07:57:27;;;;;;;2.80;2.20;;;;;;;24.05;nan;100803.03;5027407;28;20050;-68
2022/09/01 07:59:54;;;;;;;3.10;2.42;;;;;;;24.40;nan;100802.19;5029369;28;20539;-69
2022/09/01 08:02:20;;;;;;;2.70;1.92;;;;;;;24.71;nan;100804.50;5029675;28;20033;-69
2022/09/01 08:04:45;;;;;;;3.03;1.90;;;;;;;25.28;nan;100802.94;5029657;28;20117;-69
2022/09/01 08:07:10;;;;;;;3.17;2.15;;;;;;;25.97;nan;100808.22;5028250;28;20160;-69
2022/09/01 08:09:37;;;;;;;3.97;2.30;;;;;;;26.46;nan;100811.91;5029073;28;20049;-69
2022/09/01 08:12:04;;;;;;;2.42;1.80;;;;;;;26.94;nan;100806.84;5029442;28;20500;-69
2022/09/01 08:14:30;;;;;;;2.40;1.85;;;;;;;27.67;nan;100810.03;5030213;28;20096;-69
2022/09/01 08:16:55;;;;;;;2.63;1.70;;;;;;;28.53;nan;100805.47;5027406;28;20041;-69
2022/09/01 08:19:21;;;;;;;2.63;1.70;;;;;;;28.74;nan;100807.22;5029107;28;20132;-69
2022/09/01 08:21:47;;;;;;;3.70;2.00;;;;;;;28.26;nan;100814.56;5029333;28;20065;-69
2022/09/01 08:24:13;;;;;;;3.17;1.83;;;;;;;27.99;nan;100824.72;5026170;28;20564;-69
2022/09/01 08:26:39;;;;;;;2.53;2.03;;;;;;;27.56;nan;100818.38;5034939;28;20045;-69
2022/09/01 08:29:04;;;;;;;3.13;2.25;;;;;;;27.16;nan;100825.81;5049340;28;20083;-69
2022/09/01 08:31:30;;;;;;;2.70;2.00;;;;;;;27.68;nan;100822.53;5028516;28;20130;-69
2022/09/01 08:33:55;;;;;;;2.47;1.75;;;;;;;28.47;nan;100817.44;5029197;28;20072;-69
2022/09/01 08:36:21;;;;;;;3.42;2.00;;;;;;;28.64;nan;100815.34;5028087;28;20052;-69
2022/09/01 08:38:46;;;;;;;2.47;1.67;;;;;;;29.11;nan;100813.63;5029041;28;20036;-69
2022/09/01 08:41:23;;;;;;;3.33;1.77;;;;;;;29.79;nan;100822.44;5028600;28;20037;-69
2022/09/01 08:43:58;;;;;;;2.15;1.70;;;;;;;30.18;nan;100807.41;5028975;28;20271;-69
2022/09/01 08:46:29;;;;;;;2.60;1.52;;;;;;;30.77;nan;100816.78;5028387;28;20048;-70
2022/09/01 08:48:58;;;;;;;2.15;1.70;;;;;;;30.87;nan;100816.78;5022726;28;20033;-69
2022/09/01 08:51:26;;;;;;;2.92;1.80;;;;;;;30.74;nan;100814.63;5027940;28;20065;-69
2022/09/01 08:54:21;;;;;;;2.45;1.70;;;;;;;30.09;nan;100814.53;5028308;28;20045;-69
2022/09/01 08:56:53;;;;;;;2.20;1.70;;;;;;;29.70;nan;100813.19;5019492;28;20038;-69
2022/09/01 08:59:19;;;;;;;2.30;1.70;;;;;;;29.49;nan;100814.25;5028791;28;20030;-69
2022/09/01 09:02:05;;;;;;;1.70;1.30;;;;;;;29.74;nan;100802.56;5028115;28;20041;-69
2022/09/01 09:04:36;;;;;;;3.92;1.55;;;;;;;30.04;nan;100809.88;5027992;28;20192;-69
2022/09/01 09:07:07;;;;;;;;;;;;;;;30.60;nan;100808.94;5033740;28;20043;-67
2022/09/01 09:09:45;;;;;;;3.42;1.80;;;;;;;30.99;nan;100808.25;5031647;28;19912;-67
2022/09/01 09:12:37;;;;;;;2.10;1.63;;;;;;;31.78;nan;100808.25;5030621;28;20556;-68
2022/09/01 09:15:12;;;;;;;1.80;1.40;;;;;;;31.83;nan;100803.56;5030114;28;20126;-67
2022/09/01 09:17:48;;;;;;;1.90;1.30;;;;;;;31.17;nan;100802.13;5031201;28;20063;-67
2022/09/01 09:20:13;;;;;;;3.08;2.00;;;;;;;30.29;nan;100802.78;5032418;28;20045;-68
2022/09/01 09:22:40;;;;;;;3.15;1.80;;;;;;;29.36;nan;100801.94;5045434;28;20061;-67
2022/09/01 09:25:09;;;;;;;2.10;1.60;;;;;;;28.67;nan;100792.22;5032760;28;20035;-67
2022/09/01 09:27:43;;;;;;;2.47;1.73;;;;;;;28.37;nan;100805.38;5033862;28;20045;-67
2022/09/01 09:30:18;;;;;;;2.38;1.70;;;;;;;27.80;nan;100802.53;5029870;28;20034;-68
2022/09/01 09:32:48;;;;;;;2.95;1.95;;;;;;;27.33;nan;100798.59;5030691;28;20059;-67
2022/09/01 09:35:33;;;;;;;2.60;1.50;;;;;;;27.03;nan;100799.03;5022019;28;20041;-67
2022/09/01 09:38:30;;;;;;;2.20;1.70;;;;;;;26.67;nan;100793.19;5034470;28;20053;-67
2022/09/01 09:40:58;;;;;;;1.70;1.40;;;;;;;26.46;nan;100784.78;5035268;28;20037;-67
2022/09/01 09:43:25;;;;;;;2.13;1.80;;;;;;;26.44;nan;100777.97;5029403;28;20044;-67
2022/09/01 09:46:20;;;;;;;2.42;1.80;;;;;;;26.58;nan;100789.31;5031075;28;20044;-70
2022/09/01 09:48:46;;;;;;;2.42;2.05;;;;;;;26.20;nan;100788.22;5033918;28;20034;-67
2022/09/01 09:51:21;;;;;;;2.20;2.00;;;;;;;26.81;nan;100786.31;5030543;28;20037;-67
2022/09/01 09:53:48;;;;;;;3.72;1.90;;;;;;;26.38;nan;100784.41;5027996;28;20036;-67
2022/09/01 09:56:24;;;;;;;3.80;2.10;;;;;;;25.83;nan;100786.00;5034399;28;20044;-67
2022/09/01 09:58:51;;;;;;;4.13;2.13;;;;;;;26.64;nan;100782.88;5025800;28;20045;-67
2022/09/01 10:01:22;;;;;;;2.78;1.98;;;;;;;26.88;nan;100780.72;5027869;28;20041;-67
2022/09/01 10:03:53;;;;;;;3.08;2.15;;;;;;;26.42;nan;100783.66;5031651;28;20561;-67
2022/09/01 10:06:44;;;;;;;3.17;2.00;;;;;;;25.84;nan;100776.84;5028073;28;20521;-67
2022/09/01 10:09:35;;;;;;;2.80;2.50;;;;;;;25.25;nan;100773.66;5024154;28;20046;-67
2022/09/01 10:12:02;;;;;;;2.95;2.30;;;;;;;25.88;nan;100772.56;5022776;28;20046;-67
2022/09/01 10:14:39;;;;;;;3.45;1.80;;;;;;;26.28;nan;100768.81;5030433;28;20163;-67
2022/09/01 10:17:12;;;;;;;2.88;2.25;;;;;;;26.28;nan;100761.50;5029066;28;20045;-66
2022/09/01 10:19:47;;;;;;;2.38;2.00;;;;;;;26.91;nan;100766.66;5032427;28;20041;-67
2022/09/01 10:22:13;;;;;;;3.33;2.15;;;;;;;27.11;nan;100758.69;5028960;28;20060;-67
2022/09/01 10:24:38;;;;;;;3.50;2.10;;;;;;;26.90;nan;100763.09;5032384;28;20030;-67
2022/09/01 10:27:16;;;;;;;2.88;1.90;;;;;;;26.71;nan;100764.50;5035782;28;20572;-67
2022/09/01 10:29:49;;;;;;;2.80;1.95;;;;;;;26.45;nan;100761.44;5042451;28;20083;-67
2022/09/01 10:32:20;;;;;;;2.55;1.80;;;;;;;26.68;nan;100765.84;5029699;28;20037;-67
2022/09/01 10:34:47;;;;;;;2.38;1.52;;;;;;;28.58;nan;100751.94;5030677;28;20091;-67
2022/09/01 10:37:13;;;;;;;4.40;1.80;;;;;;;29.29;nan;100752.38;5030173;28;20044;-67
2022/09/01 10:40:11;;;;;;;2.22;1.70;;;;;;;28.88;nan;100752.28;5031216;28;20033;-69
2022/09/01 10:42:38;;;;;;;2.70;1.60;;;;;;;28.65;nan;100748.13;5036820;28;20067;-67
2022/09/01 10:45:04;;;;;;;2.60;1.55;;;;;;;30.92;nan;100652.09;5032182;28;20547;-67
2022/09/01 10:47:32;;;;;;;2.30;1.80;;;;;;;32.20;nan;100670.78;5031471;28;20045;-68
2022/09/01 10:50:01;;;;;;;2.13;1.50;;;;;;;31.98;nan;100665.03;5032058;28;20037;-68
2022/09/01 10:52:42;;;;;;;2.80;1.60;;;;;;;31.63;nan;100677.97;5030233;28;20468;-68
2022/09/01 10:55:33;;;;;;;2.10;1.60;;;;;;;31.17;nan;100671.00;5024858;28;20049;-67
2022/09/01 10:58:02;;;;;;;2.50;1.70;;;;;;;30.23;nan;100609.09;5028463;28;20072;-67
2022/09/01 11:00:27;;;;;;;2.17;1.60;;;;;;;29.90;nan;100647.97;5033288;28;20129;-69
2022/09/01 11:03:11;;;;;;;2.50;1.50;;;;;;;31.61;nan;100663.81;5031271;28;20164;-67
2022/09/01 11:06:06;;;;;;;3.17;1.90;;;;;;;31.76;nan;100666.34;5031780;28;20036;-67
2022/09/01 11:08:31;;;;;;;2.83;1.85;;;;;;;31.43;nan;100659.88;5032696;28;20036;-68
2022/09/01 11:10:56;;;;;;;2.90;1.60;;;;;;;;;;5030826;28;20050;-67
2022/09/01 11:13:32;;;;;;;2.07;1.43;;;;;;;29.68;nan;100640.94;5035142;28;20044;-67
2022/09/01 11:16:25;;;;;;;2.08;1.48;;;;;;;29.12;nan;100640.97;5036657;28;20034;-68
2022/09/01 11:18:50;;;;;;;2.85;1.80;;;;;;;28.89;nan;100636.84;5034143;28;20082;-67
2022/09/01 11:21:32;;;;;;;2.20;1.70;;;;;;;28.62;nan;100626.22;5036580;28;20555;-67
2022/09/01 11:24:35;;;;;;;2.40;1.83;;;;;;;29.45;nan;100636.06;5035691;28;20043;-67
2022/09/01 11:27:00;;;;;;;2.13;1.40;;;;;;;30.96;nan;100669.53;5040049;28;20581;-67
2022/09/01 11:29:53;;;;;;;1.90;1.40;;;;;;;34.02;nan;100639.03;5041972;28;20084;-67
2022/09/01 11:32:23;;;;;;;2.15;1.38;;;;;;;35.81;nan;100639.38;5032727;28;20140;-68
2022/09/01 11:34:49;;;;;;;;;;;;;;;34.86;nan;100638.53;5029285;28;20120;-67
2022/09/01 11:37:19;;;;;;;2.08;1.38;;;;;;;35.35;nan;100637.88;5033178;28;20447;-68
2022/09/01 11:39:49;;;;;;;3.20;1.40;;;;;;;34.45;nan;100638.66;5032358;28;20044;-67
2022/09/01 11:42:35;;;;;;;2.08;1.38;;;;;;;31.85;nan;100626.34;5027094;28;20630;-67
2022/09/01 11:45:16;;;;;;;1.83;1.60;;;;;;;;;;5033480;28;20095;-67
2022/09/01 11:47:45;;;;;;;1.98;1.25;;;;;;;28.72;nan;100612.63;5027834;28;20048;-67
2022/09/01 11:50:26;;;;;;;2.78;2.00;;;;;;;27.87;nan;100640.09;5032690;28;20426;-66
2022/09/01 11:52:57;;;;;;;4.20;2.00;;;;;;;27.22;nan;100601.34;5031637;28;20037;-67
2022/09/01 11:55:41;;;;;;;2.83;2.00;;;;;;;26.64;nan;100611.97;5027883;28;20191;-67
2022/09/01 11:58:11;;;;;;;2.22;1.60;;;;;;;26.35;nan;100611.38;5030150;28;20107;-67
2022/09/01 12:00:40;;;;;;;2.95;1.80;;;;;;;26.33;nan;100583.72;5026214;28;20464;-67